Time;durP1;ratioP1;P1;durP2;ratioP2;P2;SDS_P1;SDS_P2;PMS_P1;PMS_P2;Temp;Humidity;BMP_temperature;BMP_pressure;BME280_temperature;BME280_humidity;BME280_pressure;Samples;Min_cycle;Max_cycle;Signal;HPM_P1;HPM_P2
2024/04/08 00:00:45;;;;;;;7.43;2.47;;;15.00;1.00;;;;;;5490712;26;20253;-80
2024/04/08 00:03:11;;;;;;;5.70;2.55;;;14.90;18.50;;;;;;5478325;26;20278;-79
2024/04/08 00:05:41;;;;;;;7.78;2.63;;;14.90;99.90;;;;;;5485650;26;20238;-80
2024/04/08 00:08:07;;;;;;;4.47;2.45;;;14.90;99.90;;;;;;5477112;26;20259;-80
2024/04/08 00:10:38;;;;;;;4.15;2.30;;;14.80;1.00;;;;;;5488668;26;20296;-79
2024/04/08 00:13:05;;;;;;;6.43;2.50;;;14.80;1.00;;;;;;5489649;26;20234;-80
2024/04/08 00:15:36;;;;;;;3.88;2.40;;;14.90;1.00;;;;;;5484133;25;20250;-79
2024/04/08 00:18:03;;;;;;;4.10;2.42;;;14.90;1.00;;;;;;5488067;26;20273;-78
2024/04/08 00:20:32;;;;;;;7.43;2.38;;;14.80;1.00;;;;;;5480484;26;20234;-79
2024/04/08 00:22:58;;;;;;;6.20;2.42;;;14.80;1.00;;;;;;5497552;26;20248;-80
2024/04/08 00:25:26;;;;;;;7.07;2.70;;;14.80;42.30;;;;;;5497559;26;20238;-80
2024/04/08 00:27:52;;;;;;;6.13;2.42;;;14.80;99.90;;;;;;5488877;25;20246;-80
2024/04/08 00:30:21;;;;;;;4.50;2.47;;;14.80;99.90;;;;;;5484035;26;20820;-80
2024/04/08 00:32:50;;;;;;;6.43;2.20;;;14.80;99.90;;;;;;5494703;26;20238;-80
2024/04/08 00:35:18;;;;;;;5.00;2.20;;;14.90;99.90;;;;;;5481433;26;20259;-80
2024/04/08 00:37:44;;;;;;;4.55;2.42;;;14.70;1.00;;;;;;5497019;26;20284;-80
2024/04/08 00:40:13;;;;;;;6.60;2.90;;;14.80;1.00;;;;;;5490126;26;20310;-80
2024/04/08 00:42:39;;;;;;;7.43;2.97;;;14.70;1.00;;;;;;5476870;26;20251;-80
2024/04/08 00:45:08;;;;;;;5.55;2.38;;;14.60;99.90;;;;;;5494302;26;20246;-80
2024/04/08 00:47:34;;;;;;;7.05;2.55;;;14.60;99.90;;;;;;5490766;26;20243;-79
2024/04/08 00:50:06;;;;;;;4.93;2.53;;;14.40;1.00;;;;;;5498395;26;20305;-80
2024/04/08 00:52:32;;;;;;;4.13;2.33;;;14.60;94.40;;;;;;5486241;26;20254;-80
2024/04/08 00:55:00;;;;;;;6.45;2.53;;;14.50;1.00;;;;;;5482667;26;20315;-80
2024/04/08 00:57:27;;;;;;;4.15;2.38;;;14.30;1.00;;;;;;5490700;26;20301;-79
2024/04/08 00:59:56;;;;;;;4.50;2.65;;;14.20;99.90;;;;;;5489817;26;20289;-79
2024/04/08 01:02:23;;;;;;;7.20;3.13;;;14.10;99.90;;;;;;5498916;25;20371;-80
2024/04/08 01:04:52;;;;;;;7.53;2.90;;;14.10;99.90;;;;;;5494963;26;20242;-79
2024/04/08 01:07:21;;;;;;;6.68;2.42;;;14.10;99.90;;;;;;5479757;26;20688;-79
2024/04/08 01:09:50;;;;;;;5.60;2.67;;;14.10;99.90;;;;;;5485702;26;20237;-79
2024/04/08 01:12:16;;;;;;;4.80;2.70;;;14.00;99.90;;;;;;5492708;26;20292;-79
2024/04/08 01:14:46;;;;;;;4.97;2.78;;;14.00;99.90;;;;;;5490388;26;20585;-80
2024/04/08 01:17:16;;;;;;;8.05;2.78;;;14.00;99.90;;;;;;5493858;25;20255;-80
2024/04/08 01:19:45;;;;;;;6.00;2.60;;;14.00;99.90;;;;;;5489465;26;20238;-80
2024/04/08 01:22:11;;;;;;;4.10;2.60;;;14.00;99.90;;;;;;5497864;26;20238;-80
2024/04/08 01:24:42;;;;;;;6.18;2.50;;;14.00;99.90;;;;;;5482152;26;20284;-79
2024/04/08 01:27:11;;;;;;;6.07;2.80;;;14.00;99.90;;;;;;5479355;26;20264;-79
2024/04/08 01:29:37;;;;;;;3.65;2.40;;;14.20;99.90;;;;;;5474767;25;20296;-80
2024/04/08 01:32:06;;;;;;;5.65;2.63;;;14.20;99.90;;;;;;5485597;26;20649;-80
2024/04/08 01:34:32;;;;;;;5.97;2.60;;;14.10;99.90;;;;;;5478346;26;20288;-80
2024/04/08 01:37:00;;;;;;;6.63;2.95;;;14.00;99.90;;;;;;5477057;26;20772;-80
2024/04/08 01:39:26;;;;;;;6.82;3.20;;;14.00;99.90;;;;;;5486427;26;20249;-80
2024/04/08 01:41:57;;;;;;;3.97;2.40;;;14.10;99.90;;;;;;5495439;26;20621;-79
2024/04/08 01:44:23;;;;;;;4.60;2.97;;;14.10;99.90;;;;;;5481750;26;20243;-79
2024/04/08 01:46:52;;;;;;;4.93;2.85;;;14.10;99.90;;;;;;5486462;26;20343;-79
2024/04/08 01:49:18;;;;;;;4.43;2.78;;;14.10;99.90;;;;;;5475739;26;20246;-79
2024/04/08 01:51:46;;;;;;;5.18;2.65;;;14.10;99.90;;;;;;5484135;26;20608;-79
2024/04/08 01:54:12;;;;;;;5.72;2.63;;;14.20;99.90;;;;;;5489930;26;20759;-79
2024/04/08 01:56:41;;;;;;;4.38;2.72;;;14.10;99.90;;;;;;5482999;26;20254;-79
2024/04/08 01:59:10;;;;;;;8.73;3.45;;;13.90;99.90;;;;;;5488864;26;20239;-79
2024/04/08 02:01:38;;;;;;;5.72;2.90;;;13.90;99.90;;;;;;5483386;26;20289;-80
2024/04/08 02:04:04;;;;;;;5.88;2.92;;;13.90;99.90;;;;;;5486002;26;20234;-79
2024/04/08 02:06:33;;;;;;;6.60;2.90;;;13.90;99.90;;;;;;5489882;25;20254;-79
2024/04/08 02:08:59;;;;;;;5.20;2.90;;;13.90;99.90;;;;;;5483418;26;20234;-79
2024/04/08 02:11:27;;;;;;;4.82;3.00;;;14.00;99.90;;;;;;5489102;26;20251;-79
2024/04/08 02:13:53;;;;;;;7.97;3.20;;;14.10;99.90;;;;;;5486212;26;20239;-79
2024/04/08 02:16:24;;;;;;;5.93;3.40;;;14.20;99.90;;;;;;5500475;26;20293;-79
2024/04/08 02:18:50;;;;;;;5.50;2.80;;;14.20;99.90;;;;;;5487996;26;20282;-79
2024/04/08 02:21:19;;;;;;;7.00;2.97;;;14.20;99.90;;;;;;5496003;26;20285;-79
2024/04/08 02:23:45;;;;;;;6.85;2.92;;;14.10;99.90;;;;;;5481176;26;20239;-79
2024/04/08 02:26:14;;;;;;;6.30;2.85;;;14.20;99.90;;;;;;5484799;26;20273;-79
2024/04/08 02:28:40;;;;;;;7.00;2.95;;;14.30;99.90;;;;;;5467831;25;20633;-79
2024/04/08 02:31:08;;;;;;;8.98;3.13;;;14.30;99.90;;;;;;5479751;26;20243;-79
2024/04/08 02:33:37;;;;;;;10.73;3.33;;;14.30;99.90;;;;;;5481364;26;20240;-79
2024/04/08 02:36:06;;;;;;;7.47;3.30;;;14.30;99.90;;;;;;5488572;26;20272;-79
2024/04/08 02:38:33;;;;;;;5.72;2.90;;;14.30;99.90;;;;;;5479562;26;20289;-79
2024/04/08 02:41:02;;;;;;;3.25;2.50;;;14.30;99.90;;;;;;5474356;26;20844;-81
2024/04/08 02:43:27;;;;;;;8.32;2.90;;;14.30;99.90;;;;;;5481160;26;20250;-79
2024/04/08 02:45:56;;;;;;;4.90;2.63;;;14.30;99.90;;;;;;5480696;26;20254;-79
2024/04/08 02:48:23;;;;;;;4.20;2.60;;;14.20;99.90;;;;;;5483874;26;20243;-79
2024/04/08 02:50:55;;;;;;;8.07;3.33;;;14.00;99.90;;;;;;5476231;26;20247;-79
2024/04/08 02:53:20;;;;;;;7.82;3.72;;;13.90;99.90;;;;;;5476521;26;20308;-78
2024/04/08 02:55:49;;;;;;;5.55;2.90;;;13.90;99.90;;;;;;5473897;26;20847;-79
2024/04/08 02:58:15;;;;;;;10.75;3.22;;;13.80;99.90;;;;;;5480839;26;20286;-78
2024/04/08 03:00:43;;;;;;;9.25;3.15;;;13.80;99.90;;;;;;5487653;26;20297;-79
2024/04/08 03:03:09;;;;;;;6.28;3.00;;;13.80;99.90;;;;;;5490936;25;20238;-77
2024/04/08 03:05:38;;;;;;;11.25;3.90;;;13.70;99.90;;;;;;5478571;26;20294;-79
2024/04/08 03:08:07;;;;;;;5.78;3.42;;;13.50;99.90;;;;;;5490527;26;20239;-79
2024/04/08 03:10:36;;;;;;;7.85;3.55;;;13.40;99.90;;;;;;5488144;26;20293;-78
2024/04/08 03:13:02;;;;;;;6.47;3.13;;;13.20;99.90;;;;;;5488755;26;20230;-80
2024/04/08 03:15:31;;;;;;;6.32;3.00;;;13.20;99.90;;;;;;5489190;26;20242;-79
2024/04/08 03:17:57;;;;;;;5.63;2.97;;;13.10;99.90;;;;;;5504747;26;20238;-78
2024/04/08 03:20:26;;;;;;;5.97;3.10;;;13.10;99.90;;;;;;5488363;26;20289;-79
2024/04/08 03:22:52;;;;;;;5.90;3.23;;;13.10;99.90;;;;;;5492397;26;20277;-79
2024/04/08 03:25:23;;;;;;;8.27;3.80;;;13.00;99.90;;;;;;5506969;25;20276;-79
2024/04/08 03:27:51;;;;;;;5.82;3.55;;;12.90;99.90;;;;;;5487106;26;20830;-81
2024/04/08 03:30:19;;;;;;;7.47;3.58;;;12.90;99.90;;;;;;5501064;26;20233;-80
2024/04/08 03:32:46;;;;;;;3.90;3.07;;;12.90;99.90;;;;;;5497320;26;20600;-81
2024/04/08 03:35:14;;;;;;;8.37;3.70;;;12.90;99.90;;;;;;5485913;26;20246;-79
2024/04/08 03:37:43;;;;;;;5.13;3.23;;;12.90;99.90;;;;;;5491480;26;20288;-79
2024/04/08 03:40:12;;;;;;;8.87;3.73;;;12.80;99.90;;;;;;5488864;26;20226;-79
2024/04/08 03:42:43;;;;;;;9.50;3.83;;;12.80;99.90;;;;;;5495131;26;20241;-80
2024/04/08 03:45:12;;;;;;;8.00;3.73;;;12.80;99.90;;;;;;5499979;26;20285;-80
2024/04/08 03:47:41;;;;;;;9.27;3.53;;;12.80;99.90;;;;;;5497905;25;20237;-80
2024/04/08 03:50:07;;;;;;;6.30;3.33;;;12.90;99.90;;;;;;5493237;26;20641;-80
2024/04/08 03:52:36;;;;;;;6.90;2.90;;;12.80;99.90;;;;;;5493895;26;20345;-79
2024/04/08 03:55:02;;;;;;;4.05;3.08;;;12.80;99.90;;;;;;5484885;26;20285;-80
2024/04/08 03:57:30;;;;;;;4.88;3.00;;;12.90;99.90;;;;;;5493513;26;20278;-79
2024/04/08 03:59:59;;;;;;;3.72;2.78;;;12.90;99.90;;;;;;5492542;26;20616;-80
2024/04/08 04:02:27;;;;;;;7.40;3.20;;;12.90;99.90;;;;;;5494068;26;20238;-80
2024/04/08 04:04:53;;;;;;;6.35;3.10;;;12.90;99.90;;;;;;5492566;26;20585;-80
2024/04/08 04:07:22;;;;;;;5.82;2.88;;;12.90;99.90;;;;;;5490874;26;20242;-80
2024/04/08 04:09:48;;;;;;;5.03;2.83;;;13.00;99.90;;;;;;5492409;26;20238;-80
2024/04/08 04:12:17;;;;;;;8.85;3.38;;;13.00;99.90;;;;;;5493781;26;20305;-80
2024/04/08 04:14:42;;;;;;;5.43;3.05;;;13.00;99.90;;;;;;5507295;26;20241;-80
2024/04/08 04:17:14;;;;;;;5.65;3.28;;;13.00;99.90;;;;;;5524241;25;20782;-80
2024/04/08 04:19:40;;;;;;;7.43;3.30;;;12.90;99.90;;;;;;5495628;25;20238;-80
2024/04/08 04:22:08;;;;;;;8.00;3.40;;;13.00;99.90;;;;;;5508381;26;20735;-80
2024/04/08 04:24:34;;;;;;;9.10;4.03;;;13.00;99.90;;;;;;5516862;25;20241;-80
2024/04/08 04:27:02;;;;;;;6.07;2.92;;;12.90;99.90;;;;;;5515944;26;20317;-80
2024/04/08 04:29:28;;;;;;;7.40;3.40;;;12.90;99.90;;;;;;5516378;25;20739;-80
2024/04/08 04:31:57;;;;;;;8.95;2.92;;;12.90;99.90;;;;;;5501833;26;20281;-80
2024/04/08 04:34:26;;;;;;;6.05;3.03;;;12.80;99.90;;;;;;5514271;25;20237;-80
2024/04/08 04:36:54;;;;;;;4.45;2.75;;;12.80;99.90;;;;;;5498045;26;20239;-80
2024/04/08 04:39:20;;;;;;;6.45;3.28;;;12.90;99.90;;;;;;5512302;25;20240;-80
2024/04/08 04:41:52;;;;;;;4.38;2.70;;;12.90;99.90;;;;;;5505488;25;20251;-80
2024/04/08 04:44:18;;;;;;;6.03;3.28;;;13.00;99.90;;;;;;5501767;26;20238;-80
2024/04/08 04:46:47;;;;;;;4.45;3.05;;;13.00;99.90;;;;;;5505145;25;20256;-81
2024/04/08 04:49:13;;;;;;;5.65;3.08;;;12.90;99.90;;;;;;5499296;26;20293;-80
2024/04/08 04:51:45;;;;;;;7.25;3.10;;;12.90;99.90;;;;;;5501051;25;20234;-80
2024/04/08 04:54:11;;;;;;;6.78;3.08;;;12.90;99.90;;;;;;5497677;26;20234;-81
2024/04/08 04:56:40;;;;;;;6.47;3.00;;;12.90;99.90;;;;;;5498239;26;20297;-81
2024/04/08 04:59:06;;;;;;;6.38;3.50;;;12.90;99.90;;;;;;5495457;26;20728;-81
2024/04/08 05:01:35;;;;;;;5.97;3.25;;;12.90;99.90;;;;;;5496161;26;20327;-81
2024/04/08 05:04:01;;;;;;;4.10;3.00;;;12.70;99.90;;;;;;5494561;26;20242;-81
2024/04/08 05:06:29;;;;;;;6.00;3.15;;;12.70;99.90;;;;;;5491791;26;20808;-81
2024/04/08 05:08:58;;;;;;;5.32;3.08;;;12.60;99.90;;;;;;5492577;26;20239;-80
2024/04/08 05:11:27;;;;;;;7.28;3.53;;;12.50;99.90;;;;;;5489602;26;20294;-81
2024/04/08 05:13:53;;;;;;;6.78;3.45;;;12.40;99.90;;;;;;5497709;26;20249;-80
2024/04/08 05:16:22;;;;;;;6.27;3.57;;;12.40;99.90;;;;;;5525364;25;20296;-81
2024/04/08 05:18:48;;;;;;;8.53;3.70;;;12.30;99.90;;;;;;5492869;25;20250;-80
2024/04/08 05:21:16;;;;;;;6.17;3.80;;;12.30;99.90;;;;;;5512645;26;20723;-80
2024/04/08 05:23:44;;;;;;;6.93;3.70;;;12.20;99.90;;;;;;5515276;25;20345;-80
2024/04/08 05:26:15;;;;;;;6.13;3.20;;;12.20;99.90;;;;;;5508903;25;20237;-81
2024/04/08 05:28:41;;;;;;;8.87;3.90;;;12.20;99.90;;;;;;5502971;25;20242;-81
2024/04/08 05:31:10;;;;;;;6.80;3.57;;;12.30;99.90;;;;;;5506988;25;20281;-81
2024/04/08 05:33:36;;;;;;;6.80;3.60;;;12.40;99.90;;;;;;5505472;25;20238;-80
2024/04/08 05:36:05;;;;;;;5.43;3.63;;;12.40;99.90;;;;;;5508613;26;20318;-80
2024/04/08 05:38:30;;;;;;;9.17;3.63;;;12.40;99.90;;;;;;5491867;26;20764;-80
2024/04/08 05:41:03;;;;;;;4.77;3.27;;;12.30;99.90;;;;;;5504890;26;20234;-80
2024/04/08 05:43:32;;;;;;;6.43;3.40;;;12.40;99.90;;;;;;5500094;26;20230;-80
2024/04/08 05:46:01;;;;;;;8.07;3.20;;;12.60;99.90;;;;;;5498841;26;20250;-81
2024/04/08 05:48:27;;;;;;;9.33;4.17;;;12.90;99.90;;;;;;5508439;26;20301;-81
2024/04/08 05:50:55;;;;;;;7.27;3.60;;;13.20;99.90;;;;;;5495470;25;20251;-81
2024/04/08 05:53:21;;;;;;;7.00;4.33;;;13.50;99.90;;;;;;5501166;26;20590;-80
2024/04/08 05:55:50;;;;;;;10.10;3.75;;;13.50;99.90;;;;;;5491928;25;20335;-80
2024/04/08 05:58:17;;;;;;;4.67;3.23;;;13.40;99.90;;;;;;5495957;26;20242;-80
2024/04/08 06:00:48;;;;;;;8.90;4.90;;;13.10;99.90;;;;;;5490394;26;20284;-80
2024/04/08 06:03:14;;;;;;;6.20;3.23;;;13.00;99.90;;;;;;5494879;26;20280;-80
2024/04/08 06:05:44;;;;;;;5.97;3.10;;;13.00;99.90;;;;;;5493711;26;20235;-80
2024/04/08 06:08:10;;;;;;;4.83;3.07;;;13.10;99.90;;;;;;5493206;26;20242;-80
2024/04/08 06:10:44;;;;;;;7.63;3.40;;;13.10;99.90;;;;;;5491429;26;20350;-80
2024/04/08 06:13:11;;;;;;;4.50;3.50;;;13.10;99.90;;;;;;5490380;26;20755;-80
2024/04/08 06:15:39;;;;;;;7.75;3.50;;;13.10;99.90;;;;;;5503360;26;20233;-80
2024/04/08 06:18:08;;;;;;;5.30;3.40;;;13.20;99.90;;;;;;5511483;26;20278;-80
2024/04/08 06:20:37;;;;;;;5.13;3.20;;;13.30;99.90;;;;;;5508432;25;20349;-80
2024/04/08 06:23:03;;;;;;;4.77;3.30;;;13.40;99.90;;;;;;5519434;25;20237;-80
2024/04/08 06:25:32;;;;;;;5.33;3.13;;;13.30;99.90;;;;;;5521928;25;20568;-80
2024/04/08 06:28:00;;;;;;;4.47;2.73;;;13.20;99.90;;;;;;5516458;26;20289;-80
2024/04/08 06:30:26;;;;;;;6.17;2.70;;;13.30;99.90;;;;;;5518492;25;20245;-81
2024/04/08 06:32:57;;;;;;;5.30;3.10;;;13.30;99.90;;;;;;5512567;25;20284;-80
2024/04/08 06:35:26;;;;;;;5.20;2.90;;;13.40;99.90;;;;;;5500809;26;20330;-80
2024/04/08 06:37:54;;;;;;;5.85;3.10;;;13.30;99.90;;;;;;5507000;26;24023;-80
2024/04/08 06:40:20;;;;;;;6.60;3.57;;;13.40;99.90;;;;;;5512168;25;20237;-80
2024/04/08 06:42:49;;;;;;;7.63;2.77;;;13.40;99.90;;;;;;5509221;25;20283;-80
2024/04/08 06:45:15;;;;;;;5.47;3.10;;;13.40;99.90;;;;;;5508023;26;20234;-81
2024/04/08 06:47:43;;;;;;;6.82;3.08;;;13.40;99.90;;;;;;5502105;25;20289;-80
2024/04/08 06:50:09;;;;;;;9.15;3.45;;;13.50;99.90;;;;;;5501956;26;20661;-80
2024/04/08 06:52:40;;;;;;;5.35;3.40;;;13.50;99.90;;;;;;5505462;25;20238;-80
2024/04/08 06:55:06;;;;;;;6.23;3.07;;;13.50;99.90;;;;;;5486630;26;20293;-80
2024/04/08 06:57:35;;;;;;;6.85;3.00;;;13.50;99.90;;;;;;5494301;26;20310;-80
2024/04/08 07:00:01;;;;;;;6.10;3.10;;;13.60;99.90;;;;;;5469965;26;20240;-80
2024/04/08 07:02:29;;;;;;;7.33;2.70;;;13.70;99.90;;;;;;5485616;26;20787;-81
2024/04/08 07:04:55;;;;;;;5.50;3.03;;;13.80;99.90;;;;;;5479302;25;20239;-80
2024/04/08 07:07:24;;;;;;;5.33;2.97;;;13.80;99.90;;;;;;5476833;26;20290;-80
2024/04/08 07:09:53;;;;;;;7.45;3.50;;;13.80;99.90;;;;;;5493935;26;20268;-80
2024/04/08 07:12:21;;;;;;;5.65;3.05;;;13.90;99.90;;;;;;5479222;26;20724;-80
2024/04/08 07:14:51;;;;;;;7.22;3.20;;;13.90;99.90;;;;;;5481523;26;20242;-80
2024/04/08 07:17:19;;;;;;;7.30;2.78;;;13.90;99.90;;;;;;5498400;25;20317;-80
2024/04/08 07:19:46;;;;;;;6.55;3.10;;;14.00;99.90;;;;;;5501975;25;20233;-79
2024/04/08 07:22:15;;;;;;;6.20;3.47;;;14.00;99.90;;;;;;5511415;26;20318;-79
2024/04/08 07:24:41;;;;;;;6.40;3.47;;;14.00;99.90;;;;;;5518315;25;20233;-79
2024/04/08 07:27:12;;;;;;;9.30;5.10;;;14.00;99.90;;;;;;5518557;25;20651;-79
2024/04/08 07:29:38;;;;;;;8.02;4.47;;;14.00;99.90;;;;;;5516716;25;20275;-79
2024/04/08 07:32:08;;;;;;;9.70;4.57;;;14.10;99.90;;;;;;5514133;25;20620;-79
2024/04/08 07:34:34;;;;;;;12.52;7.15;;;14.20;99.90;;;;;;5515773;25;20838;-79
2024/04/08 07:37:02;;;;;;;17.13;8.15;;;14.20;99.90;;;;;;5503606;26;20255;-80
2024/04/08 07:39:28;;;;;;;13.65;8.40;;;14.30;99.90;;;;;;5501622;25;20241;-79
2024/04/08 07:41:57;;;;;;;12.18;6.60;;;14.40;99.90;;;;;;5494465;25;20314;-79
2024/04/08 07:44:25;;;;;;;13.45;7.80;;;14.40;99.90;;;;;;5508865;26;20857;-79
2024/04/08 07:46:54;;;;;;;14.23;8.52;;;14.40;99.90;;;;;;5489736;25;20242;-80
2024/04/08 07:49:20;;;;;;;13.65;8.38;;;14.50;99.90;;;;;;5498365;26;20243;-79
2024/04/08 07:51:48;;;;;;;14.80;8.75;;;14.70;99.90;;;;;;5504219;25;20301;-79
2024/04/08 07:54:15;;;;;;;19.85;12.50;;;14.70;99.90;;;;;;5486591;26;20614;-79
2024/04/08 07:56:43;;;;;;;23.27;13.55;;;14.80;99.90;;;;;;5492591;25;20245;-80
2024/04/08 07:59:09;;;;;;;21.70;14.57;;;14.90;99.90;;;;;;5489662;26;20345;-79
2024/04/08 08:01:41;;;;;;;20.48;13.05;;;15.00;99.90;;;;;;5499113;26;20238;-79
2024/04/08 08:04:07;;;;;;;21.00;14.05;;;15.10;99.90;;;;;;5476668;26;20281;-80
2024/04/08 08:06:36;;;;;;;20.73;13.02;;;15.30;99.90;;;;;;5482923;26;20737;-80
2024/04/08 08:09:05;;;;;;;18.90;13.15;;;15.50;99.90;;;;;;5469447;26;20763;-79
2024/04/08 08:11:34;;;;;;;21.17;13.40;;;15.50;99.90;;;;;;5467111;26;20764;-79
2024/04/08 08:14:02;;;;;;;20.98;14.20;;;15.50;99.90;;;;;;5487954;26;20238;-80
2024/04/08 08:16:31;;;;;;;20.80;14.95;;;15.40;99.90;;;;;;5489164;26;20247;-79
2024/04/08 08:18:59;;;;;;;24.50;16.23;;;15.30;99.90;;;;;;5501840;26;20250;-79
2024/04/08 08:21:28;;;;;;;21.40;15.00;;;15.20;99.90;;;;;;5488192;26;20346;-79
2024/04/08 08:23:57;;;;;;;24.15;14.73;;;15.40;99.90;;;;;;5490313;26;20274;-80
2024/04/08 08:26:28;;;;;;;19.00;14.57;;;15.50;99.90;;;;;;5519853;25;20234;-79
2024/04/08 08:28:56;;;;;;;18.73;12.98;;;15.60;99.90;;;;;;5513772;25;20732;-80
2024/04/08 08:31:22;;;;;;;18.58;13.85;;;15.60;99.90;;;;;;5516336;25;20233;-80
2024/04/08 08:33:51;;;;;;;19.70;14.60;;;15.60;99.90;;;;;;5508378;25;20233;-79
2024/04/08 08:36:22;;;;;;;20.95;15.02;;;15.50;1.00;;;;;;5512264;26;20233;-80
2024/04/08 08:38:48;;;;;;;20.48;13.27;;;15.60;1.00;;;;;;5497509;25;20246;-80
2024/04/08 08:41:18;;;;;;;20.90;13.48;;;15.80;99.90;;;;;;5504659;26;20284;-80
2024/04/08 08:43:46;;;;;;;19.38;12.73;;;15.90;1.00;;;;;;5485825;25;20277;-80
2024/04/08 08:46:15;;;;;;;17.33;12.27;;;15.80;1.00;;;;;;5502625;25;20238;-80
2024/04/08 08:48:43;;;;;;;17.27;12.50;;;15.80;1.00;;;;;;5504975;25;20241;-80
2024/04/08 08:51:13;;;;;;;20.63;14.02;;;15.90;1.00;;;;;;5497700;26;20230;-79
2024/04/08 08:53:43;;;;;;;18.20;12.25;;;16.10;1.00;;;;;;5490680;26;20241;-80
2024/04/08 08:56:17;;;;;;;25.13;12.23;;;16.50;1.00;;;;;;5489661;25;20599;-79
2024/04/08 08:58:52;;;;;;;15.00;10.93;;;16.30;1.00;;;;;;5483886;26;20339;-79
2024/04/08 09:01:22;;;;;;;17.58;11.68;;;16.50;99.90;;;;;;5477370;26;20290;-79
2024/04/08 09:03:49;;;;;;;16.00;11.10;;;16.60;99.90;;;;;;5492694;26;20241;-80
2024/04/08 09:06:17;;;;;;;14.25;10.80;;;16.80;1.00;;;;;;5494135;26;20358;-80
2024/04/08 09:08:46;;;;;;;14.20;10.77;;;17.40;1.00;;;;;;5483693;26;20276;-79
2024/04/08 09:11:16;;;;;;;15.07;10.65;;;17.30;99.90;;;;;;5477066;26;20240;-80
2024/04/08 09:13:42;;;;;;;14.70;9.93;;;17.70;1.00;;;;;;5479409;26;20242;-80
2024/04/08 09:16:11;;;;;;;13.30;9.13;;;18.10;1.00;;;;;;5495082;26;20246;-79
2024/04/08 09:18:37;;;;;;;13.15;9.32;;;18.30;99.90;;;;;;5493144;26;20621;-79
2024/04/08 09:21:06;;;;;;;12.93;8.90;;;18.70;93.00;;;;;;5490757;26;20239;-79
2024/04/08 09:23:35;;;;;;;10.80;8.23;;;18.50;1.00;;;;;;5491857;26;20281;-80
2024/04/08 09:26:07;;;;;;;12.75;9.07;;;18.40;1.00;;;;;;5491838;26;20237;-79
2024/04/08 09:28:33;;;;;;;12.02;8.32;;;18.20;92.50;;;;;;5515507;25;20336;-80
2024/04/08 09:31:01;;;;;;;10.30;8.45;;;18.30;1.00;;;;;;5505891;26;20239;-80
2024/04/08 09:33:28;;;;;;;12.27;8.02;;;19.00;1.00;;;;;;5518404;25;20276;-80
2024/04/08 09:35:58;;;;;;;11.73;8.20;;;19.10;99.90;;;;;;5510912;25;20234;-80
2024/04/08 09:38:25;;;;;;;13.00;8.07;;;19.00;99.90;;;;;;5498311;26;20241;-79
2024/04/08 09:40:56;;;;;;;11.48;8.15;;;19.10;99.90;;;;;;5504839;25;20322;-79
2024/04/08 09:43:24;;;;;;;9.98;8.50;;;19.00;1.00;;;;;;5508727;26;20277;-80
2024/04/08 09:45:55;;;;;;;13.18;9.65;;;18.70;99.90;;;;;;5502902;25;20238;-79
2024/04/08 09:48:22;;;;;;;11.32;8.50;;;18.60;1.00;;;;;;5500261;26;20310;-79
2024/04/08 09:50:54;;;;;;;13.20;8.57;;;18.90;1.00;;;;;;5487477;25;20233;-79
2024/04/08 09:53:20;;;;;;;10.55;8.25;;;19.10;99.90;;;;;;5497467;26;20272;-79
2024/04/08 09:55:53;;;;;;;11.05;8.05;;;19.10;99.90;;;;;;5497760;25;20293;-79
2024/04/08 09:58:22;;;;;;;12.65;8.07;;;19.00;49.20;;;;;;5496974;26;20238;-79
2024/04/08 10:00:55;;;;;;;11.98;8.05;;;19.20;24.10;;;;;;5497500;25;20230;-79
2024/04/08 10:03:23;;;;;;;10.45;7.72;;;19.30;1.00;;;;;;5484137;26;20278;-79
2024/04/08 10:05:52;;;;;;;10.40;7.55;;;19.40;1.00;;;;;;5493271;26;20608;-79
2024/04/08 10:08:18;;;;;;;12.30;7.57;;;19.20;1.00;;;;;;5479269;26;20240;-80
2024/04/08 10:10:47;;;;;;;10.85;8.15;;;20.00;1.00;;;;;;5490782;26;20238;-80
2024/04/08 10:13:13;;;;;;;11.20;8.60;;;20.10;1.00;;;;;;5483094;26;20236;-79
2024/04/08 10:15:42;;;;;;;11.23;8.38;;;19.70;99.90;;;;;;5481303;26;20281;-79
2024/04/08 10:18:10;;;;;;;14.35;8.65;;;19.50;1.00;;;;;;5471733;26;20323;-79
2024/04/08 10:20:44;;;;;;;11.82;9.23;;;19.40;17.60;;;;;;5481777;26;20783;-79
2024/04/08 10:23:10;;;;;;;12.50;9.18;;;19.70;99.90;;;;;;5473278;26;20271;-79
2024/04/08 10:25:40;;;;;;;11.95;8.73;;;19.60;1.00;;;;;;5485427;26;20298;-79
2024/04/08 10:28:07;;;;;;;15.32;10.65;;;19.50;1.00;;;;;;5490258;26;20239;-79
2024/04/08 10:30:36;;;;;;;12.77;9.27;;;19.60;1.00;;;;;;5503034;26;20250;-80
2024/04/08 10:33:03;;;;;;;11.32;8.82;;;19.70;1.00;;;;;;5514485;26;20235;-80
2024/04/08 10:35:35;;;;;;;12.27;8.73;;;19.60;1.00;;;;;;5517416;25;20281;-79
2024/04/08 10:38:01;;;;;;;15.07;8.85;;;19.60;1.00;;;;;;5510174;26;20238;-79
2024/04/08 10:40:29;;;;;;;11.35;7.97;;;19.90;1.00;;;;;;5515435;25;20330;-80
2024/04/08 10:42:56;;;;;;;12.13;7.82;;;19.90;1.00;;;;;;5506072;25;20285;-79
2024/04/08 10:45:25;;;;;;;14.25;8.80;;;20.20;1.00;;;;;;5500290;26;20242;-80
2024/04/08 10:47:55;;;;;;;14.45;9.10;;;20.40;1.00;;;;;;5501763;26;20276;-80
2024/04/08 10:50:24;;;;;;;15.40;8.50;;;20.30;1.00;;;;;;5501873;26;20301;-79
2024/04/08 10:52:52;;;;;;;13.75;9.15;;;20.20;1.00;;;;;;5499234;25;20275;-80
2024/04/08 10:55:21;;;;;;;15.80;10.27;;;20.10;1.00;;;;;;5497398;25;20239;-79
2024/04/08 10:57:47;;;;;;;15.98;10.05;;;20.40;1.00;;;;;;5491583;25;20284;-79
2024/04/08 11:00:16;;;;;;;14.50;10.50;;;20.20;1.00;;;;;;5479139;26;20235;-79
2024/04/08 11:02:42;;;;;;;12.40;9.63;;;20.50;1.00;;;;;;5497774;26;20310;-79
2024/04/08 11:05:13;;;;;;;13.70;8.70;;;20.60;1.00;;;;;;5488427;26;20238;-79
2024/04/08 11:07:39;;;;;;;15.20;9.15;;;20.60;1.00;;;;;;5485545;26;20258;-79
2024/04/08 11:10:14;;;;;;;13.75;8.65;;;20.80;1.00;;;;;;5492130;26;20587;-79
2024/04/08 11:12:40;;;;;;;13.57;7.93;;;20.80;1.00;;;;;;5490745;26;20597;-79
2024/04/08 11:15:10;;;;;;;13.63;7.70;;;20.70;99.90;;;;;;5484480;26;20272;-79
2024/04/08 11:17:36;;;;;;;10.70;7.75;;;20.90;99.90;;;;;;5496622;26;20285;-79
2024/04/08 11:20:07;;;;;;;13.52;7.82;;;20.90;1.00;;;;;;5469607;26;20314;-79
2024/04/08 11:22:33;;;;;;;12.93;7.90;;;21.00;99.90;;;;;;5493007;26;20238;-79
2024/04/08 11:25:03;;;;;;;13.23;7.88;;;21.00;99.90;;;;;;5492762;26;20246;-79
2024/04/08 11:27:33;;;;;;;13.10;7.80;;;21.20;1.00;;;;;;5492860;26;20241;-78
2024/04/08 11:30:01;;;;;;;9.85;6.93;;;21.00;99.90;;;;;;5493485;26;20306;-78
2024/04/08 11:32:27;;;;;;;14.20;7.07;;;21.10;99.90;;;;;;5497266;25;20273;-78
2024/04/08 11:34:56;;;;;;;16.13;7.88;;;21.30;99.90;;;;;;5503687;25;20254;-78
2024/04/08 11:37:21;;;;;;;11.70;6.85;;;21.20;1.00;;;;;;5484928;25;20241;-78
2024/04/08 11:39:50;;;;;;;16.15;7.32;;;21.30;1.00;;;;;;5492776;25;20238;-78
2024/04/08 11:42:16;;;;;;;10.20;6.20;;;21.00;1.00;;;;;;5497588;26;20235;-79
2024/04/08 11:44:47;;;;;;;11.75;7.00;;;21.40;99.90;;;;;;5497958;25;20233;-78
2024/04/08 11:47:17;;;;;;;13.88;7.10;;;21.40;99.90;;;;;;5492704;26;20243;-77
2024/04/08 11:49:46;;;;;;;14.63;7.20;;;21.60;99.90;;;;;;5497396;25;20238;-79
2024/04/08 11:52:12;;;;;;;11.75;6.95;;;21.40;99.90;;;;;;5488907;26;20289;-78
2024/04/08 11:54:42;;;;;;;9.68;6.63;;;21.70;99.90;;;;;;5489988;25;20234;-78
2024/04/08 11:57:08;;;;;;;11.13;6.55;;;21.90;99.90;;;;;;5482476;26;20246;-78
2024/04/08 11:59:37;;;;;;;13.50;6.70;;;21.80;99.90;;;;;;5486491;26;20276;-78
2024/04/08 12:02:06;;;;;;;7.90;6.22;;;21.60;99.90;;;;;;5481245;26;20246;-78
2024/04/08 12:04:34;;;;;;;13.05;6.30;;;21.30;99.90;;;;;;5492061;26;20827;-79
2024/04/08 12:07:02;;;;;;;9.80;6.60;;;21.90;26.90;;;;;;5481443;26;20239;-80
2024/04/08 12:09:31;;;;;;;15.10;6.68;;;22.10;28.50;;;;;;5489383;25;20238;-78
2024/04/08 12:11:56;;;;;;;9.95;6.47;;;22.00;15.60;;;;;;5484843;26;20243;-79
2024/04/08 12:14:26;;;;;;;11.85;6.20;;;22.30;1.00;;;;;;5483655;26;20276;-79
2024/04/08 12:16:53;;;;;;;12.68;6.68;;;22.00;1.00;;;;;;5494958;26;20678;-79
2024/04/08 12:19:24;;;;;;;15.70;6.38;;;22.00;1.00;;;;;;5490104;26;20238;-79
2024/04/08 12:21:51;;;;;;;11.85;6.68;;;22.20;1.00;;;;;;5492956;26;20626;-79
2024/04/08 12:24:19;;;;;;;13.50;6.30;;;22.30;1.00;;;;;;5493989;26;20286;-79
2024/04/08 12:26:45;;;;;;;9.15;6.18;;;22.30;1.00;;;;;;5486826;26;20583;-79
2024/04/08 12:29:15;;;;;;;13.75;6.55;;;22.20;1.00;;;;;;5491768;26;20277;-79
2024/04/08 12:31:41;;;;;;;12.70;6.30;;;22.20;1.00;;;;;;5493315;26;20707;-79
2024/04/08 12:34:10;;;;;;;11.02;5.78;;;22.80;1.00;;;;;;5494912;26;20719;-79
2024/04/08 12:36:38;;;;;;;13.65;6.03;;;23.30;1.00;;;;;;5475556;26;20255;-78
2024/04/08 12:39:07;;;;;;;9.80;6.05;;;23.70;1.00;;;;;;5481621;26;20273;-79
2024/04/08 12:41:34;;;;;;;10.80;6.00;;;23.30;1.00;;;;;;5475933;26;20616;-79
2024/04/08 12:44:03;;;;;;;9.15;6.85;;;22.80;1.00;;;;;;5484505;26;20557;-78
2024/04/08 12:46:29;;;;;;;12.27;6.38;;;22.60;1.00;;;;;;5495065;26;20295;-78